Time;durP1;ratioP1;P1;durP2;ratioP2;P2;SDS_P1;SDS_P2;PMS_P1;PMS_P2;Temp;Humidity;BMP_temperature;BMP_pressure;BME280_temperature;BME280_humidity;BME280_pressure;Samples;Min_cycle;Max_cycle;Signal;HPM_P1;HPM_P2
2021/07/14 00:02:13;;;;;;;168.77;58.30;;;19.40;99.90;;;;;;4871584;29;20503;-85
2021/07/14 00:04:41;;;;;;;179.40;56.95;;;19.40;99.90;;;;;;4877109;29;20471;-86
2021/07/14 00:07:08;;;;;;;185.38;58.00;;;19.40;99.90;;;;;;4875633;29;20475;-86
2021/07/14 00:09:34;;;;;;;183.98;58.22;;;19.40;99.90;;;;;;4874110;29;20040;-85
2021/07/14 00:12:03;;;;;;;194.82;56.72;;;19.40;99.90;;;;;;4877939;29;20051;-84
2021/07/14 00:22:25;;;;;;;195.98;58.85;;;19.30;99.90;;;;;;4895537;29;20064;-83
2021/07/14 00:24:54;;;;;;;125.55;48.92;;;19.20;99.90;;;;;;4904031;29;20197;-84
2021/07/14 00:27:21;;;;;;;179.88;58.47;;;19.20;99.90;;;;;;4874856;29;20404;-85
2021/07/14 00:29:51;;;;;;;160.45;53.72;;;19.20;99.90;;;;;;4889323;29;20044;-85
2021/07/14 00:32:19;;;;;;;150.32;54.20;;;19.30;99.90;;;;;;4863702;29;20100;-84
2021/07/14 00:34:48;;;;;;;160.48;55.95;;;19.20;99.90;;;;;;4879283;29;20139;-85
2021/07/14 00:37:14;;;;;;;171.15;57.38;;;19.30;99.90;;;;;;4894231;29;20543;-86
2021/07/14 00:39:43;;;;;;;156.18;54.13;;;19.20;99.90;;;;;;4893820;29;20047;-87
2021/07/14 00:42:11;;;;;;;162.43;56.47;;;19.30;99.90;;;;;;4892423;29;20511;-83
2021/07/14 00:44:37;;;;;;;176.65;57.83;;;19.30;99.90;;;;;;4890843;29;20069;-84
2021/07/14 00:47:05;;;;;;;127.88;51.03;;;19.20;99.90;;;;;;4892292;29;20044;-82
2021/07/14 00:49:32;;;;;;;149.63;54.83;;;19.20;99.90;;;;;;4875675;29;20539;-87
2021/07/14 00:51:59;;;;;;;158.50;54.95;;;19.20;99.90;;;;;;4890656;29;20231;-82
2021/07/14 00:54:25;;;;;;;122.32;50.53;;;19.10;99.90;;;;;;4874821;29;20414;-83
2021/07/14 00:56:52;;;;;;;163.13;56.47;;;19.10;99.90;;;;;;4875293;29;20048;-82
2021/07/14 00:59:18;;;;;;;126.07;53.17;;;19.10;99.90;;;;;;4888074;29;20443;-84
2021/07/14 01:01:46;;;;;;;136.18;52.83;;;19.10;99.90;;;;;;4876809;29;20111;-83
2021/07/14 01:04:21;;;;;;;130.70;53.15;;;19.10;99.90;;;;;;4908953;29;20088;-83
2021/07/14 01:06:51;;;;;;;134.02;53.85;;;19.10;99.90;;;;;;4903344;29;20044;-83
2021/07/14 01:09:26;;;;;;;145.05;53.03;;;19.10;99.90;;;;;;4892868;29;20052;-82
2021/07/14 01:11:58;;;;;;;121.20;53.58;;;19.10;99.90;;;;;;4907074;29;20067;-84
2021/07/14 01:14:49;;;;;;;135.63;53.25;;;19.10;99.90;;;;;;4905444;29;20046;-83
2021/07/14 01:17:18;;;;;;;128.88;53.17;;;19.10;99.90;;;;;;4908212;29;20072;-81
2021/07/14 01:20:09;;;;;;;122.50;53.83;;;19.00;99.90;;;;;;4886154;29;20071;-81
2021/07/14 01:23:06;;;;;;;114.40;50.50;;;19.10;99.90;;;;;;4901924;29;20127;-82
2021/07/14 01:25:47;;;;;;;97.22;49.45;;;19.00;99.90;;;;;;4886305;29;20044;-82
2021/07/14 01:28:14;;;;;;;129.60;53.33;;;19.10;99.90;;;;;;4882120;29;20084;-81
2021/07/14 01:30:42;;;;;;;133.68;54.65;;;19.00;99.90;;;;;;4869670;29;20040;-83
2021/07/14 01:33:10;;;;;;;118.75;52.95;;;19.00;99.90;;;;;;4889182;29;20134;-82
2021/07/14 01:35:48;;;;;;;135.02;55.88;;;19.00;99.90;;;;;;4856959;29;20404;-80
2021/07/14 01:38:18;;;;;;;145.57;57.15;;;19.00;99.90;;;;;;4888568;29;20056;-82
2021/07/14 01:40:46;;;;;;;161.25;59.47;;;18.90;99.90;;;;;;4871604;29;20052;-82
2021/07/14 01:43:13;;;;;;;163.63;58.30;;;18.90;99.90;;;;;;4870877;29;20047;-82
2021/07/14 01:45:41;;;;;;;153.93;58.50;;;18.90;99.90;;;;;;4839859;29;20056;-82
2021/07/14 01:48:10;;;;;;;162.13;58.40;;;18.80;99.90;;;;;;4870398;29;20394;-81
2021/07/14 01:50:37;;;;;;;159.73;60.70;;;18.80;99.90;;;;;;4870330;29;20078;-84
2021/07/14 01:53:05;;;;;;;114.22;52.88;;;18.80;99.90;;;;;;4886358;29;20048;-82
2021/07/14 01:55:37;;;;;;;154.30;58.63;;;18.80;99.90;;;;;;4888545;29;20055;-82
2021/07/14 01:58:03;;;;;;;141.57;58.22;;;18.80;99.90;;;;;;4901124;29;20062;-83
2021/07/14 02:00:30;;;;;;;135.98;59.88;;;18.90;99.90;;;;;;4871094;29;20051;-83
2021/07/14 02:05:33;;;;;;;142.55;55.08;;;18.90;99.90;;;;;;4889014;29;20066;-83
2021/07/14 02:07:59;;;;;;;151.68;58.00;;;18.80;99.90;;;;;;4873119;29;20052;-84
2021/07/14 02:10:27;;;;;;;132.60;57.80;;;18.80;99.90;;;;;;4872842;29;20047;-82
2021/07/14 02:12:54;;;;;;;149.25;59.67;;;18.80;99.90;;;;;;4858188;29;20122;-86
2021/07/14 02:15:22;;;;;;;128.48;55.55;;;18.80;99.90;;;;;;4888009;29;20043;-83
2021/07/14 02:17:58;;;;;;;152.85;59.55;;;18.80;99.90;;;;;;4878106;29;20040;-86
2021/07/14 02:20:24;;;;;;;155.73;61.60;;;18.80;99.90;;;;;;4894277;29;20028;-84
2021/07/14 02:22:51;;;;;;;159.73;61.75;;;18.80;99.90;;;;;;4904028;29;20070;-83
2021/07/14 02:25:18;;;;;;;165.10;61.15;;;18.80;99.90;;;;;;4869535;29;20442;-83
2021/07/14 02:27:45;;;;;;;176.55;62.10;;;18.80;99.90;;;;;;4891071;29;20138;-81
2021/07/14 02:30:18;;;;;;;180.05;66.25;;;18.80;99.90;;;;;;4906522;29;20051;-83
2021/07/14 02:32:46;;;;;;;204.25;66.80;;;18.80;99.90;;;;;;4892100;29;20071;-82
2021/07/14 02:35:13;;;;;;;191.25;66.57;;;18.70;99.90;;;;;;4874706;29;20048;-83
2021/07/14 02:38:07;;;;;;;181.85;65.85;;;18.70;99.90;;;;;;4842078;29;20396;-83
2021/07/14 02:40:45;;;;;;;229.52;68.13;;;18.80;99.90;;;;;;4888944;29;20410;-83
2021/07/14 02:43:13;;;;;;;192.52;67.13;;;18.80;99.90;;;;;;4894039;29;20464;-82
2021/07/14 02:45:46;;;;;;;145.45;61.95;;;18.70;99.90;;;;;;4876288;29;20046;-84
2021/07/14 02:48:13;;;;;;;149.90;60.78;;;18.80;99.90;;;;;;4907294;29;20036;-84
2021/07/14 02:50:40;;;;;;;142.68;59.60;;;18.80;99.90;;;;;;4906135;29;20048;-82
2021/07/14 02:53:19;;;;;;;130.48;57.22;;;18.80;99.90;;;;;;4857504;29;20079;-83
2021/07/14 02:55:52;;;;;;;123.70;55.75;;;18.80;99.90;;;;;;4891911;29;20543;-86
2021/07/14 02:58:22;;;;;;;138.43;59.45;;;18.80;99.90;;;;;;4892250;29;20101;-81
2021/07/14 03:00:49;;;;;;;145.48;56.88;;;18.70;99.90;;;;;;4891956;29;20051;-83
2021/07/14 03:03:16;;;;;;;122.85;54.50;;;18.70;99.90;;;;;;4893818;29;20044;-85
2021/07/14 03:05:44;;;;;;;106.10;52.33;;;18.70;99.90;;;;;;4875220;29;20071;-84
2021/07/14 03:08:14;;;;;;;120.10;54.25;;;18.70;99.90;;;;;;4895129;29;20056;-86
2021/07/14 03:10:43;;;;;;;106.75;53.40;;;18.70;99.90;;;;;;4914228;29;20529;-85
2021/07/14 03:13:09;;;;;;;120.97;56.17;;;18.70;99.90;;;;;;4896889;29;20786;-87
2021/07/14 03:15:42;;;;;;;133.38;58.92;;;18.60;99.90;;;;;;4908531;29;20048;-83
2021/07/14 03:18:09;;;;;;;131.73;59.03;;;18.70;99.90;;;;;;4863134;29;20046;-83
2021/07/14 03:20:36;;;;;;;140.65;61.15;;;18.70;99.90;;;;;;4875278;29;20071;-82
2021/07/14 03:23:03;;;;;;;129.80;56.22;;;18.70;99.90;;;;;;4873833;29;20713;-83
2021/07/14 03:25:29;;;;;;;138.05;58.15;;;18.60;99.90;;;;;;4907454;29;20044;-85
2021/07/14 03:27:56;;;;;;;112.65;53.47;;;18.60;99.90;;;;;;4877075;29;20119;-85
2021/07/14 03:30:26;;;;;;;125.35;56.20;;;18.70;99.90;;;;;;4875195;29;20043;-86
2021/07/14 03:32:54;;;;;;;132.13;57.95;;;18.60;99.90;;;;;;4875121;29;20119;-85
2021/07/14 03:35:20;;;;;;;132.23;59.67;;;18.60;99.90;;;;;;4889328;29;20114;-84
2021/07/14 03:37:50;;;;;;;117.30;54.08;;;18.60;99.90;;;;;;4862030;29;20343;-85
2021/07/14 03:40:18;;;;;;;113.07;54.45;;;18.60;99.90;;;;;;4889712;29;20403;-83
2021/07/14 03:42:49;;;;;;;140.77;55.78;;;18.60;99.90;;;;;;4858657;29;20147;-85
2021/07/14 03:45:15;;;;;;;128.50;57.67;;;18.60;99.90;;;;;;4889263;29;20040;-84
2021/07/14 03:47:42;;;;;;;123.40;52.55;;;18.60;99.90;;;;;;4873673;29;20546;-84
2021/07/14 03:50:09;;;;;;;127.90;52.95;;;18.60;99.90;;;;;;4860589;29;20060;-85
2021/07/14 03:52:36;;;;;;;106.32;49.97;;;18.60;99.90;;;;;;4861132;29;20057;-83
2021/07/14 03:55:04;;;;;;;108.43;49.45;;;18.60;99.90;;;;;;4861159;29;20071;-85
2021/07/14 03:57:31;;;;;;;121.88;50.65;;;18.50;99.90;;;;;;4875728;29;20056;-84
2021/07/14 03:59:57;;;;;;;107.43;50.42;;;18.60;99.90;;;;;;4861976;29;20095;-84
2021/07/14 04:02:25;;;;;;;96.53;47.92;;;18.60;99.90;;;;;;4872666;29;20048;-83
2021/07/14 04:04:51;;;;;;;111.68;48.47;;;18.60;99.90;;;;;;4874752;29;20070;-86
2021/07/14 04:07:26;;;;;;;92.20;45.58;;;18.60;99.90;;;;;;4874006;29;20659;-85
2021/07/14 04:09:53;;;;;;;92.57;46.88;;;18.60;99.90;;;;;;4891354;29;20048;-81
2021/07/14 04:12:19;;;;;;;96.10;48.25;;;18.60;99.90;;;;;;4859593;29;20075;-86
2021/07/14 04:14:45;;;;;;;89.65;46.08;;;18.60;99.90;;;;;;4890117;29;20040;-84
2021/07/14 04:17:12;;;;;;;105.28;47.97;;;18.60;99.90;;;;;;4905401;29;20055;-85
2021/07/14 04:19:40;;;;;;;100.65;49.03;;;18.60;99.90;;;;;;4890910;29;20044;-86
2021/07/14 04:22:13;;;;;;;109.50;48.30;;;18.60;99.90;;;;;;4895204;29;20499;-87
2021/07/14 04:24:46;;;;;;;104.35;49.92;;;18.50;99.90;;;;;;4905688;29;20050;-83
2021/07/14 04:27:14;;;;;;;102.75;48.47;;;18.50;99.90;;;;;;4861797;29;20113;-83
2021/07/14 04:29:40;;;;;;;89.32;44.67;;;18.50;99.90;;;;;;4871134;29;20040;-83
2021/07/14 04:32:07;;;;;;;94.80;47.38;;;18.50;99.90;;;;;;4874340;29;20510;-83
2021/07/14 04:34:33;;;;;;;101.22;48.20;;;18.60;99.90;;;;;;4855596;29;20111;-85
2021/07/14 04:36:59;;;;;;;87.68;46.35;;;18.60;99.90;;;;;;4875642;29;20511;-83
2021/07/14 04:39:25;;;;;;;108.07;49.08;;;18.60;99.90;;;;;;4892411;29;20043;-84
2021/07/14 04:41:51;;;;;;;107.28;50.30;;;18.60;99.90;;;;;;4859224;29;21510;-82
2021/07/14 04:44:31;;;;;;;110.13;50.88;;;18.60;99.90;;;;;;4859515;29;20036;-82
2021/07/14 04:46:57;;;;;;;88.38;44.60;;;18.60;99.90;;;;;;4891437;29;20071;-83
2021/07/14 04:49:23;;;;;;;99.85;46.58;;;18.60;99.90;;;;;;4887579;29;20715;-84
2021/07/14 04:51:49;;;;;;;102.28;49.70;;;18.60;99.90;;;;;;4872060;29;20759;-84
2021/07/14 04:54:18;;;;;;;103.38;50.60;;;18.60;99.90;;;;;;4859519;29;20084;-83
2021/07/14 04:56:45;;;;;;;111.70;50.17;;;18.60;99.90;;;;;;4886452;29;20056;-82
2021/07/14 04:59:12;;;;;;;93.18;47.95;;;18.70;99.90;;;;;;4875569;29;20063;-82
2021/07/14 05:01:37;;;;;;;88.63;46.47;;;18.70;99.90;;;;;;4843458;29;20052;-84
2021/07/14 05:04:04;;;;;;;93.68;48.45;;;18.60;99.90;;;;;;4858863;29;20841;-88
2021/07/14 05:06:30;;;;;;;98.65;51.38;;;18.70;99.90;;;;;;4861398;29;20099;-83
2021/07/14 05:08:58;;;;;;;90.30;48.80;;;18.70;99.90;;;;;;4857671;29;20384;-85
2021/07/14 05:11:23;;;;;;;100.30;51.47;;;18.70;99.90;;;;;;4871499;29;20074;-86
2021/07/14 05:13:50;;;;;;;106.75;50.30;;;18.70;99.90;;;;;;4879446;29;20032;-85
2021/07/14 05:16:16;;;;;;;87.10;48.30;;;18.60;99.90;;;;;;4858913;29;20058;-84
2021/07/14 05:18:41;;;;;;;89.90;48.45;;;18.70;99.90;;;;;;4858234;29;20048;-86
2021/07/14 05:21:08;;;;;;;95.35;49.45;;;18.80;99.90;;;;;;4857221;29;20063;-83
2021/07/14 05:23:36;;;;;;;88.70;47.13;;;18.80;99.90;;;;;;4876454;29;20484;-82
2021/07/14 05:26:03;;;;;;;87.78;46.92;;;18.80;99.90;;;;;;4880365;29;20047;-83
2021/07/14 05:28:33;;;;;;;83.47;47.28;;;18.70;99.90;;;;;;4861211;29;20723;-83
2021/07/14 05:30:59;;;;;;;86.43;48.40;;;18.80;99.90;;;;;;4874600;29;20060;-84
2021/07/14 05:33:25;;;;;;;86.75;49.33;;;18.70;99.90;;;;;;4889863;29;20963;-88
2021/07/14 05:35:54;;;;;;;81.32;47.75;;;18.80;99.90;;;;;;4913586;29;20046;-83
2021/07/14 05:38:21;;;;;;;80.65;48.20;;;18.80;99.90;;;;;;4857654;29;20574;-84
2021/07/14 05:40:49;;;;;;;74.82;46.08;;;18.80;99.90;;;;;;4909441;29;20044;-85
2021/07/14 05:43:16;;;;;;;78.40;47.53;;;18.90;99.90;;;;;;4907434;29;20055;-86
2021/07/14 05:45:42;;;;;;;74.35;44.95;;;18.90;99.90;;;;;;4873493;29;20052;-83
2021/07/14 05:48:09;;;;;;;67.78;45.20;;;18.90;99.90;;;;;;4905667;29;20079;-85
2021/07/14 05:50:35;;;;;;;63.92;44.55;;;18.90;99.90;;;;;;4892164;29;20036;-84
2021/07/14 05:53:01;;;;;;;63.10;43.40;;;19.00;99.90;;;;;;4874161;29;20067;-87
2021/07/14 05:55:27;;;;;;;62.13;43.50;;;19.00;99.90;;;;;;4855972;29;20043;-85
2021/07/14 05:57:56;;;;;;;60.63;42.33;;;19.00;99.90;;;;;;4886393;29;20827;-90
2021/07/14 06:00:27;;;;;;;58.25;42.55;;;19.00;99.90;;;;;;4875848;29;20491;-85
2021/07/14 06:02:53;;;;;;;54.50;40.97;;;19.00;99.90;;;;;;4887809;29;20044;-85
2021/07/14 06:05:19;;;;;;;53.28;37.80;;;19.00;99.90;;;;;;4876630;29;20063;-85
2021/07/14 06:07:45;;;;;;;48.60;37.50;;;19.00;99.90;;;;;;4871445;29;20124;-85
2021/07/14 06:10:12;;;;;;;48.78;38.55;;;19.00;99.90;;;;;;4841392;29;20155;-85
2021/07/14 06:12:37;;;;;;;47.10;37.90;;;19.00;99.90;;;;;;4858983;29;20410;-84
2021/07/14 06:15:05;;;;;;;49.95;37.75;;;19.10;99.90;;;;;;4862574;29;20048;-86
2021/07/14 06:17:31;;;;;;;48.97;38.13;;;19.00;99.90;;;;;;4908712;29;20820;-82
2021/07/14 06:19:57;;;;;;;45.63;35.80;;;19.10;99.90;;;;;;4877126;29;20052;-81
2021/07/14 06:22:23;;;;;;;39.00;34.75;;;19.10;99.90;;;;;;4861064;29;20071;-81
2021/07/14 06:24:49;;;;;;;42.30;34.15;;;19.10;99.90;;;;;;4905827;29;20035;-82
2021/07/14 06:27:15;;;;;;;43.50;34.10;;;19.00;99.90;;;;;;4893399;29;20043;-82
2021/07/14 06:29:44;;;;;;;39.28;31.73;;;19.10;99.90;;;;;;4874859;29;20052;-80
2021/07/14 06:32:10;;;;;;;39.63;32.97;;;19.30;99.90;;;;;;4892697;29;20070;-79
2021/07/14 06:34:36;;;;;;;39.25;30.02;;;19.30;99.90;;;;;;4873216;29;20388;-81
2021/07/14 06:37:02;;;;;;;34.00;30.02;;;19.40;99.90;;;;;;4889556;29;20415;-82
2021/07/14 06:39:28;;;;;;;34.65;30.98;;;19.40;99.90;;;;;;4891481;29;20562;-81
2021/07/14 06:41:55;;;;;;;35.35;28.55;;;19.50;99.90;;;;;;4857269;29;20040;-84
2021/07/14 06:44:22;;;;;;;33.70;28.52;;;19.60;99.90;;;;;;4878851;29;20123;-81
2021/07/14 06:46:48;;;;;;;33.67;30.10;;;19.70;99.90;;;;;;4895558;29;20469;-82
2021/07/14 06:49:14;;;;;;;30.05;26.83;;;19.80;99.90;;;;;;4864492;29;20060;-81
2021/07/14 06:51:40;;;;;;;27.88;24.67;;;19.90;99.90;;;;;;4884818;29;20135;-79
2021/07/14 06:54:06;;;;;;;28.30;25.20;;;20.00;99.90;;;;;;4891485;29;20048;-80
2021/07/14 06:56:32;;;;;;;27.88;24.88;;;20.10;99.90;;;;;;4861309;29;20044;-81
2021/07/14 06:58:59;;;;;;;24.30;21.73;;;20.10;99.90;;;;;;4889570;29;20048;-82
2021/07/14 07:01:25;;;;;;;27.30;23.52;;;20.20;99.90;;;;;;4875705;29;20064;-81
2021/07/14 07:03:51;;;;;;;27.75;23.23;;;20.30;99.90;;;;;;4891571;29;20119;-81
2021/07/14 07:06:17;;;;;;;25.67;23.05;;;20.30;99.90;;;;;;4892004;29;20713;-80
2021/07/14 07:08:43;;;;;;;26.70;23.98;;;20.40;99.90;;;;;;4889474;29;20043;-82
2021/07/14 07:11:10;;;;;;;27.33;22.55;;;20.50;99.90;;;;;;4861113;29;20162;-85
2021/07/14 07:13:36;;;;;;;28.90;23.67;;;20.40;99.90;;;;;;4871871;29;20044;-80
2021/07/14 07:16:03;;;;;;;27.80;22.75;;;20.40;99.90;;;;;;4862721;29;20055;-83
2021/07/14 07:18:29;;;;;;;25.40;22.83;;;20.40;99.90;;;;;;4892259;29;20339;-82
2021/07/14 07:20:57;;;;;;;23.77;21.27;;;20.40;99.90;;;;;;4907196;29;20052;-82
2021/07/14 07:23:24;;;;;;;22.20;19.92;;;20.50;99.90;;;;;;4891153;29;20051;-80
2021/07/14 07:25:52;;;;;;;22.95;20.60;;;20.70;99.90;;;;;;4872077;29;20041;-80
2021/07/14 07:28:22;;;;;;;;;;;20.70;99.90;;;;;;4892267;29;20044;-80
2021/07/14 07:30:48;;;;;;;21.90;19.67;;;20.70;99.90;;;;;;4893298;29;19930;-81
2021/07/14 07:33:14;;;;;;;23.98;21.42;;;20.80;99.90;;;;;;4892069;29;20036;-80
2021/07/14 07:35:42;;;;;;;21.45;19.17;;;20.80;99.90;;;;;;4862319;29;20048;-82
2021/07/14 07:38:08;;;;;;;21.48;19.17;;;20.80;99.90;;;;;;4902626;29;20036;-82
2021/07/14 07:40:34;;;;;;;24.25;20.48;;;20.80;99.90;;;;;;4909145;29;20421;-81
2021/07/14 07:43:00;;;;;;;21.50;19.25;;;20.80;99.90;;;;;;4873621;29;20036;-81
2021/07/14 07:45:26;;;;;;;25.50;20.45;;;20.80;99.90;;;;;;4874198;29;20274;-80
2021/07/14 07:47:52;;;;;;;22.55;20.10;;;20.80;99.90;;;;;;4858257;29;20479;-79
2021/07/14 07:50:18;;;;;;;23.33;20.83;;;20.80;99.90;;;;;;4877665;29;20043;-87
2021/07/14 07:52:44;;;;;;;23.63;21.25;;;20.80;99.90;;;;;;4875881;29;20044;-87
2021/07/14 07:55:14;;;;;;;22.27;19.92;;;20.80;99.90;;;;;;4892213;29;20044;-85
2021/07/14 07:57:41;;;;;;;21.95;19.77;;;20.80;99.90;;;;;;4893129;29;20111;-85
2021/07/14 08:00:12;;;;;;;21.90;19.48;;;20.80;99.90;;;;;;4879452;29;20040;-84
2021/07/14 08:02:38;;;;;;;23.20;20.77;;;20.80;99.90;;;;;;4896348;29;20084;-88
2021/07/14 08:05:05;;;;;;;22.30;20.10;;;20.90;99.90;;;;;;4876760;29;20467;-86
2021/07/14 08:07:31;;;;;;;21.77;19.55;;;20.90;99.90;;;;;;4859594;29;20040;-87
2021/07/14 08:09:57;;;;;;;23.73;21.27;;;20.90;99.90;;;;;;4892600;29;20099;-86
2021/07/14 08:12:23;;;;;;;22.17;19.88;;;20.90;99.90;;;;;;4893753;29;20115;-88
2021/07/14 08:14:49;;;;;;;23.42;20.92;;;21.00;99.90;;;;;;4894417;29;20044;-89
2021/07/14 08:17:15;;;;;;;23.70;21.20;;;21.00;99.90;;;;;;4880615;29;20048;-86
2021/07/14 08:19:47;;;;;;;23.08;20.70;;;21.00;99.90;;;;;;4876643;29;20036;-87
2021/07/14 08:22:13;;;;;;;23.27;20.88;;;21.10;99.90;;;;;;4893911;29;20060;-88
2021/07/14 08:24:40;;;;;;;21.77;19.65;;;21.10;99.90;;;;;;4861560;29;20048;-87
2021/07/14 08:27:06;;;;;;;21.40;19.30;;;21.20;99.90;;;;;;4875866;29;20047;-88
2021/07/14 08:29:32;;;;;;;22.55;20.25;;;21.20;99.90;;;;;;4906180;29;20044;-82
2021/07/14 08:31:58;;;;;;;25.33;21.38;;;21.30;99.90;;;;;;4909278;29;20355;-87
2021/07/14 08:34:25;;;;;;;28.10;22.63;;;21.40;99.90;;;;;;4892705;29;20040;-87
2021/07/14 08:36:54;;;;;;;22.98;20.77;;;21.40;99.90;;;;;;4875855;29;20048;-84
2021/07/14 08:39:20;;;;;;;22.42;20.00;;;21.50;99.90;;;;;;4892572;29;20048;-85
2021/07/14 08:41:53;;;;;;;22.05;19.95;;;21.50;99.90;;;;;;4890233;29;20040;-85
2021/07/14 08:44:21;;;;;;;24.23;21.70;;;21.50;99.90;;;;;;4878077;29;20059;-85
2021/07/14 08:46:47;;;;;;;22.27;20.25;;;21.70;99.90;;;;;;4892256;29;20550;-84
2021/07/14 08:49:17;;;;;;;23.30;20.92;;;21.60;99.90;;;;;;4896448;29;20087;-82
2021/07/14 08:51:46;;;;;;;25.00;22.60;;;21.70;99.60;;;;;;4911362;29;20534;-83
2021/07/14 08:54:12;;;;;;;26.47;23.77;;;21.80;99.30;;;;;;4874138;29;20090;-87
2021/07/14 08:56:41;;;;;;;26.10;23.55;;;21.70;99.10;;;;;;4890731;29;20503;-86
2021/07/14 08:59:09;;;;;;;26.77;24.13;;;21.60;99.50;;;;;;4892303;29;20048;-84
2021/07/14 09:01:35;;;;;;;24.65;22.15;;;21.60;99.60;;;;;;4892111;29;20115;-89
2021/07/14 09:04:03;;;;;;;26.60;23.92;;;21.50;99.90;;;;;;4891247;29;20088;-84
2021/07/14 09:06:31;;;;;;;26.50;24.00;;;21.60;99.90;;;;;;4868613;29;20249;-87
2021/07/14 09:08:56;;;;;;;26.75;24.17;;;21.60;99.90;;;;;;4889525;29;20103;-87
2021/07/14 09:11:22;;;;;;;25.10;22.70;;;21.70;99.90;;;;;;4874081;29;20537;-87
2021/07/14 09:13:49;;;;;;;26.45;24.15;;;21.70;99.90;;;;;;4905505;29;20119;-86
2021/07/14 09:16:37;;;;;;;23.50;21.17;;;21.80;99.90;;;;;;4889020;29;20480;-89
2021/07/14 09:19:12;;;;;;;23.45;21.25;;;21.90;99.90;;;;;;4858867;29;20062;-84
2021/07/14 09:21:40;;;;;;;26.50;23.80;;;21.90;99.90;;;;;;4894119;29;20722;-87
2021/07/14 09:24:31;;;;;;;25.98;23.50;;;22.10;99.90;;;;;;4901914;29;20502;-86
2021/07/14 09:27:01;;;;;;;27.23;24.92;;;22.20;99.70;;;;;;4888018;29;20504;-81
2021/07/14 09:29:28;;;;;;;24.80;22.40;;;22.20;99.60;;;;;;4893662;29;20036;-88
2021/07/14 09:31:55;;;;;;;29.92;26.85;;;22.20;99.80;;;;;;4859985;29;20124;-88
2021/07/14 09:34:30;;;;;;;28.38;25.88;;;22.20;99.00;;;;;;4886110;29;20654;-81
2021/07/14 09:36:58;;;;;;;29.45;26.55;;;22.30;98.30;;;;;;4910406;29;20746;-85
2021/07/14 09:39:39;;;;;;;27.10;24.52;;;22.20;98.60;;;;;;4890539;29;20050;-88
2021/07/14 09:42:14;;;;;;;27.63;25.10;;;22.20;99.40;;;;;;4902594;29;20040;-85
2021/07/14 09:44:48;;;;;;;28.23;25.73;;;22.20;99.50;;;;;;4892208;29;20059;-85
2021/07/14 09:47:15;;;;;;;27.42;25.05;;;22.30;99.50;;;;;;4859002;29;20144;-84
2021/07/14 09:49:42;;;;;;;29.27;26.48;;;22.40;99.00;;;;;;4908914;29;20464;-81
2021/07/14 09:52:13;;;;;;;27.75;25.10;;;22.50;98.60;;;;;;4908579;29;20036;-86
2021/07/14 09:54:40;;;;;;;27.50;24.90;;;22.40;98.40;;;;;;4899049;29;20410;-86
2021/07/14 09:57:14;;;;;;;29.10;26.40;;;22.50;98.70;;;;;;4907400;29;20110;-89
2021/07/14 09:59:40;;;;;;;28.40;25.90;;;22.50;99.20;;;;;;4907735;29;20040;-85
2021/07/14 10:02:11;;;;;;;26.95;24.48;;;22.60;97.70;;;;;;4906479;29;20383;-89
2021/07/14 10:04:37;;;;;;;28.65;25.85;;;22.60;98.60;;;;;;4887550;29;20041;-86
2021/07/14 10:07:23;;;;;;;28.02;25.05;;;22.70;99.40;;;;;;4875336;29;20646;-86
2021/07/14 10:09:49;;;;;;;26.95;24.45;;;22.80;97.80;;;;;;4873381;29;20044;-89
2021/07/14 10:12:25;;;;;;;26.77;24.48;;;22.70;97.90;;;;;;4856367;29;20455;-89
2021/07/14 10:14:52;;;;;;;27.20;24.58;;;22.70;98.10;;;;;;4891805;29;20135;-88
2021/07/14 10:17:40;;;;;;;28.40;25.67;;;22.70;97.70;;;;;;4874128;29;20056;-87
2021/07/14 10:20:25;;;;;;;28.73;26.02;;;22.60;98.40;;;;;;4891778;29;20408;-86
2021/07/14 10:22:55;;;;;;;28.38;25.38;;;22.50;98.20;;;;;;4894488;29;20063;-87
2021/07/14 10:25:22;;;;;;;;;;;22.50;98.30;;;;;;4875131;29;20071;-87
2021/07/14 10:27:49;;;;;;;26.30;23.55;;;22.40;99.00;;;;;;4886136;29;19973;-85
2021/07/14 10:30:17;;;;;;;26.33;23.92;;;22.40;99.00;;;;;;4889255;29;20051;-84
2021/07/14 10:32:43;;;;;;;24.65;22.30;;;22.50;98.90;;;;;;4903294;29;20421;-86
2021/07/14 10:35:18;;;;;;;25.85;23.33;;;22.50;98.20;;;;;;4887942;29;20056;-83
2021/07/14 10:37:52;;;;;;;26.48;23.80;;;22.50;98.30;;;;;;4878512;29;20233;-81
2021/07/14 10:40:22;;;;;;;26.73;24.25;;;22.40;98.50;;;;;;4887354;29;20048;-84
2021/07/14 10:42:50;;;;;;;26.55;24.05;;;22.40;98.20;;;;;;4900735;29;20048;-82
2021/07/14 10:45:17;;;;;;;26.85;24.20;;;22.40;98.40;;;;;;4903487;29;20047;-81
2021/07/14 10:47:48;;;;;;;25.42;22.88;;;22.40;98.20;;;;;;4873608;29;20059;-82
2021/07/14 10:50:25;;;;;;;27.90;24.92;;;22.40;98.70;;;;;;4889515;29;20044;-82
2021/07/14 10:52:52;;;;;;;28.25;25.30;;;22.40;98.30;;;;;;4889258;29;21129;-89
2021/07/14 10:55:21;;;;;;;26.45;23.98;;;22.50;97.70;;;;;;4889333;29;20036;-83
2021/07/14 10:57:49;;;;;;;29.75;26.88;;;22.60;98.00;;;;;;4891334;29;20040;-86
2021/07/14 11:00:20;;;;;;;32.92;28.63;;;22.70;98.30;;;;;;4893266;29;20119;-85
2021/07/14 11:02:52;;;;;;;33.33;28.83;;;22.80;98.40;;;;;;4871535;29;20047;-85
2021/07/14 11:05:53;;;;;;;34.15;30.35;;;22.90;98.40;;;;;;4892312;29;20040;-85
2021/07/14 11:08:42;;;;;;;37.35;31.35;;;22.80;98.20;;;;;;4821481;29;20137;-87
2021/07/14 11:11:10;;;;;;;34.45;30.83;;;22.80;97.60;;;;;;4891489;29;20052;-87
2021/07/14 11:13:38;;;;;;;36.60;32.08;;;22.60;97.80;;;;;;4888183;29;20044;-88
2021/07/14 11:16:29;;;;;;;36.60;32.10;;;22.40;97.50;;;;;;4872280;29;20044;-89
2021/07/14 11:19:09;;;;;;;36.47;32.55;;;22.30;97.50;;;;;;4891603;29;20043;-88
2021/07/14 11:21:45;;;;;;;39.88;31.95;;;22.20;97.60;;;;;;4882444;29;20071;-90
2021/07/14 11:24:11;;;;;;;37.55;33.45;;;22.00;98.30;;;;;;4890742;29;20485;-89
2021/07/14 11:26:37;;;;;;;36.45;31.63;;;21.90;98.70;;;;;;4875295;29;20064;-88
2021/07/14 11:29:15;;;;;;;37.60;32.00;;;21.80;98.60;;;;;;4869365;29;20507;-87
2021/07/14 11:31:42;;;;;;;38.35;32.53;;;21.80;98.70;;;;;;4890770;29;20040;-85
2021/07/14 11:34:29;;;;;;;37.92;30.92;;;21.80;98.30;;;;;;4890847;29;20036;-85
2021/07/14 11:36:55;;;;;;;36.88;32.92;;;21.80;98.80;;;;;;4905706;29;20052;-85
2021/07/14 11:39:33;;;;;;;34.65;29.95;;;21.80;99.30;;;;;;4875969;29;20051;-85
2021/07/14 11:42:18;;;;;;;37.83;30.85;;;21.80;99.20;;;;;;4855900;29;20052;-86
2021/07/14 11:44:55;;;;;;;33.03;29.33;;;21.90;99.20;;;;;;4874119;29;20127;-86
2021/07/14 11:47:36;;;;;;;33.45;28.65;;;22.00;98.40;;;;;;4889373;29;20504;-84
2021/07/14 11:50:04;;;;;;;32.00;28.58;;;22.00;98.70;;;;;;4872318;29;20167;-89
2021/07/14 11:52:45;;;;;;;36.42;28.17;;;22.00;98.60;;;;;;4873054;29;20458;-85
2021/07/14 11:55:36;;;;;;;30.38;27.10;;;22.00;98.50;;;;;;4889445;29;20066;-87
2021/07/14 11:58:02;;;;;;;29.42;26.35;;;22.00;98.70;;;;;;4889158;29;20055;-88
2021/07/14 12:00:33;;;;;;;29.92;26.77;;;22.10;97.80;;;;;;4907318;29;20063;-87
2021/07/14 12:03:03;;;;;;;29.65;25.88;;;22.20;98.10;;;;;;4875781;29;20052;-85
2021/07/14 12:05:31;;;;;;;28.85;25.95;;;22.20;98.00;;;;;;4889839;29;20555;-86
2021/07/14 12:08:11;;;;;;;27.27;24.38;;;22.30;97.90;;;;;;4887295;29;20067;-82
2021/07/14 12:10:39;;;;;;;28.70;25.25;;;22.30;98.30;;;;;;4870659;29;20059;-80
2021/07/14 12:13:06;;;;;;;29.55;26.48;;;22.40;97.50;;;;;;4904198;29;20052;-79
2021/07/14 12:15:47;;;;;;;28.25;25.40;;;22.40;98.20;;;;;;4906617;29;20047;-87
2021/07/14 12:18:14;;;;;;;29.27;24.95;;;22.50;97.60;;;;;;4891758;29;20095;-87
2021/07/14 12:20:53;;;;;;;27.45;24.60;;;22.50;97.70;;;;;;4877489;29;20048;-85
2021/07/14 12:23:21;;;;;;;28.05;25.17;;;22.60;97.30;;;;;;4891221;29;20179;-83
2021/07/14 12:25:50;;;;;;;28.35;24.10;;;22.60;97.60;;;;;;4891148;29;20123;-85
2021/07/14 12:28:19;;;;;;;25.55;23.05;;;22.60;97.60;;;;;;4889791;29;20094;-88
2021/07/14 12:30:50;;;;;;;26.85;24.10;;;22.70;97.90;;;;;;4906287;29;20048;-83
2021/07/14 12:33:20;;;;;;;26.63;23.85;;;22.80;97.20;;;;;;4875945;29;20040;-87
2021/07/14 12:35:48;;;;;;;27.77;24.33;;;22.80;96.90;;;;;;4906179;29;20040;-84
2021/07/14 12:38:15;;;;;;;23.95;21.17;;;22.80;97.50;;;;;;4907557;29;20542;-87
2021/07/14 12:40:46;;;;;;;28.20;24.05;;;22.80;97.50;;;;;;4870613;29;20511;-81
2021/07/14 12:43:18;;;;;;;27.08;22.90;;;22.90;97.50;;;;;;4886551;29;20040;-86
2021/07/14 12:45:47;;;;;;;23.17;20.67;;;23.00;97.80;;;;;;4889509;29;20050;-81